createdAt,value
2022-10-18T00:03:45.222Z,0
2022-10-18T00:08:44.531Z,0
2022-10-18T00:13:44.659Z,0
2022-10-18T00:18:43.989Z,0
2022-10-18T00:23:43.441Z,0
2022-10-18T00:28:43.272Z,0
2022-10-18T00:33:42.702Z,0
2022-10-18T00:38:43.298Z,0
2022-10-18T00:43:42.914Z,0
2022-10-18T00:48:40.144Z,0
2022-10-18T00:53:39.365Z,0
2022-10-18T00:58:38.409Z,0
2022-10-18T00:59:59.493Z,0
2022-10-18T01:04:59.054Z,0
2022-10-18T01:09:59.602Z,0
2022-10-18T01:14:58.863Z,0
2022-10-18T01:19:58.841Z,0
2022-10-18T01:24:56.857Z,0
2022-10-18T01:29:56.052Z,0
2022-10-18T01:34:55.214Z,0
2022-10-18T01:39:54.904Z,0
2022-10-18T01:44:53.641Z,0
2022-10-18T01:49:53.144Z,0
2022-10-18T01:54:52.761Z,0
2022-10-18T01:58:58.294Z,0
2022-10-18T02:03:58.117Z,0
2022-10-18T02:08:57.325Z,0
2022-10-18T02:13:56.913Z,0
2022-10-18T02:18:55.846Z,0
2022-10-18T02:23:58.451Z,0
2022-10-18T02:28:54.750Z,0
2022-10-18T02:33:54.064Z,0
2022-10-18T02:38:53.437Z,0
2022-10-18T02:43:52.896Z,0
2022-10-18T02:48:52.348Z,0
2022-10-18T02:53:52.119Z,0
2022-10-18T02:58:51.676Z,0
2022-10-18T03:03:52.602Z,0
2022-10-18T03:08:49.571Z,0
2022-10-18T03:13:49.482Z,0
2022-10-18T03:18:48.338Z,0
2022-10-18T03:23:48.152Z,0
2022-10-18T03:28:46.827Z,0
2022-10-18T03:33:45.877Z,0
2022-10-18T03:38:45.836Z,0
2022-10-18T03:43:45.427Z,0
2022-10-18T03:48:44.386Z,0
2022-10-18T03:53:44.123Z,0
2022-10-18T03:58:43.822Z,0
2022-10-18T04:03:43.452Z,0
2022-10-18T04:08:45.215Z,0
2022-10-18T04:13:40.937Z,0
2022-10-18T04:18:40.434Z,0
2022-10-18T04:23:41.569Z,0
2022-10-18T04:28:39.373Z,0
2022-10-18T04:33:38.668Z,0
2022-10-18T04:38:38.544Z,0
2022-10-18T04:43:38.437Z,0
2022-10-18T04:48:39.039Z,0
2022-10-18T04:53:36.788Z,0
2022-10-18T04:58:35.640Z,0
2022-10-18T04:59:56.998Z,0
2022-10-18T05:04:57.135Z,0
2022-10-18T05:09:55.003Z,0
2022-10-18T05:14:57.492Z,0
2022-10-18T05:19:54.325Z,0
2022-10-18T05:24:53.874Z,0
2022-10-18T05:29:53.149Z,0
2022-10-18T05:34:52.754Z,0
2022-10-18T05:39:52.761Z,0
2022-10-18T05:44:52.101Z,0
2022-10-18T05:49:52.808Z,0
2022-10-18T05:54:49.479Z,0
2022-10-18T05:59:15.870Z,0
2022-10-18T06:04:15.399Z,0
2022-10-18T06:09:14.692Z,0
2022-10-18T06:14:14.127Z,0
2022-10-18T06:19:13.670Z,0
2022-10-18T06:24:13.385Z,0.01
2022-10-18T06:29:14.714Z,0.01
2022-10-18T06:34:10.981Z,0.01
2022-10-18T06:39:10.738Z,0.01
2022-10-18T06:44:10.929Z,0.01
2022-10-18T06:49:14.040Z,0.01
2022-10-18T06:54:21.348Z,0.02
2022-10-18T06:58:54.849Z,0.01
2022-10-18T07:03:54.548Z,0.02
2022-10-18T07:08:54.451Z,0.02
2022-10-18T07:13:53.576Z,0.02
2022-10-18T07:18:52.828Z,0.02
2022-10-18T07:23:52.892Z,0.02
2022-10-18T07:28:52.590Z,0.02
2022-10-18T07:33:50.006Z,0.03
2022-10-18T07:38:49.739Z,0.02
2022-10-18T07:43:50.227Z,0.02
2022-10-18T07:48:49.238Z,0.03
2022-10-18T07:53:48.683Z,0.06
2022-10-18T07:58:47.835Z,0.06
2022-10-18T08:03:47.640Z,0.05
2022-10-18T08:08:46.700Z,0.09
2022-10-18T08:13:47.241Z,0.13
2022-10-18T08:18:44.362Z,0.13
2022-10-18T08:23:44.577Z,0.15
2022-10-18T08:29:28.064Z,0.15
2022-10-18T08:34:41.116Z,0.16
2022-10-18T08:38:42.332Z,0.18
2022-10-18T08:43:41.973Z,0.18
2022-10-18T08:48:42.048Z,0.17
2022-10-18T08:53:42.952Z,0.18
2022-10-18T08:58:40.893Z,0.18
2022-10-18T09:03:41.091Z,0.13
2022-10-18T09:08:40.156Z,0.11
2022-10-18T09:13:39.972Z,0.09
2022-10-18T09:18:38.710Z,0.07
2022-10-18T09:23:38.086Z,0.08
2022-10-18T09:28:38.716Z,0.08
2022-10-18T09:33:37.497Z,0.12
2022-10-18T09:38:37.213Z,0.18
2022-10-18T09:43:36.298Z,0.21
2022-10-18T09:48:36.230Z,0.2
2022-10-18T09:53:35.793Z,0.21
2022-10-18T09:58:36.445Z,0.24
2022-10-18T09:59:56.727Z,0.24
2022-10-18T10:04:57.083Z,0.27
2022-10-18T10:09:55.615Z,0.27
2022-10-18T10:14:55.332Z,0.27
2022-10-18T10:19:53.761Z,0.36
2022-10-18T10:24:53.601Z,0.26
2022-10-18T10:29:54.557Z,0.26
2022-10-18T10:34:53.360Z,0.46
2022-10-18T10:40:27.741Z,0.37
2022-10-18T10:44:52.710Z,0.29
2022-10-18T10:49:52.507Z,0.34
2022-10-18T10:55:35.100Z,0.5
2022-10-18T10:59:14.511Z,0.47
2022-10-18T11:04:14.769Z,0.45
2022-10-18T11:09:14.357Z,0.43
2022-10-18T11:14:29.282Z,0.37
2022-10-18T11:19:12.546Z,0.17
2022-10-18T11:24:12.361Z,0.23
2022-10-18T11:29:12.047Z,0.16
2022-10-18T11:34:12.733Z,0.22
2022-10-18T11:39:08.783Z,0.22
2022-10-18T11:44:07.807Z,0.45
2022-10-18T11:49:07.912Z,0.45
2022-10-18T11:54:07.540Z,0.44
2022-10-18T11:58:54.020Z,0.43
2022-10-18T12:03:54.267Z,0.27
2022-10-18T12:08:54.712Z,0.25
2022-10-18T12:13:54.388Z,0.15
2022-10-18T12:18:55.518Z,0.12
2022-10-18T12:23:51.648Z,0.14
2022-10-18T12:28:51.732Z,0.12
2022-10-18T12:33:49.949Z,0.11
2022-10-18T12:38:49.227Z,0.11
2022-10-18T12:43:48.200Z,0.11
2022-10-18T12:48:48.496Z,0.13
2022-10-18T12:53:46.941Z,0.15
2022-10-18T12:58:47.775Z,0.16
2022-10-18T13:03:45.099Z,0.16
2022-10-18T13:08:44.834Z,0.12
2022-10-18T13:13:43.574Z,0.11
2022-10-18T13:18:43.495Z,0.13
2022-10-18T13:23:41.814Z,0.14
2022-10-18T13:28:41.802Z,0.15
2022-10-18T13:33:41.062Z,0.14
2022-10-18T13:38:40.482Z,0.13
2022-10-18T13:43:39.860Z,0.11
2022-10-18T13:48:39.555Z,0.1
2022-10-18T13:53:38.775Z,0.1
2022-10-18T13:59:15.381Z,0.1
2022-10-18T13:59:59.618Z,0.09
2022-10-18T14:05:27.609Z,0.09
2022-10-18T14:10:06.309Z,0.09
2022-10-18T14:14:58.395Z,0.08
2022-10-18T14:19:57.513Z,0.07
2022-10-18T14:24:57.171Z,0.06
2022-10-18T14:29:56.927Z,0.05
2022-10-18T14:35:34.570Z,0.04
2022-10-18T14:39:56.812Z,0.03
2022-10-18T14:44:58.692Z,0.03
2022-10-18T14:49:53.811Z,0.02
2022-10-18T14:54:52.974Z,0.03
2022-10-18T14:58:59.599Z,0.02
2022-10-18T15:03:58.212Z,0.02
2022-10-18T15:08:57.581Z,0.02
2022-10-18T15:13:58.014Z,0.02
2022-10-18T15:18:57.064Z,0.01
2022-10-18T15:23:56.615Z,0.01
2022-10-18T15:28:56.128Z,0.01
2022-10-18T15:33:55.963Z,0.01
2022-10-18T15:38:55.621Z,0.01
2022-10-18T15:43:54.141Z,0.01
2022-10-18T15:48:53.824Z,0
2022-10-18T15:53:54.043Z,0
2022-10-18T15:58:52.846Z,0
2022-10-18T16:03:52.481Z,0
2022-10-18T16:08:51.253Z,0
2022-10-18T16:13:56.401Z,0
2022-10-18T16:18:50.306Z,0
2022-10-18T16:23:52.410Z,0
2022-10-18T16:28:48.486Z,0
2022-10-18T16:33:48.091Z,0
2022-10-18T16:38:46.869Z,0
2022-10-18T16:43:46.670Z,0
2022-10-18T16:48:44.975Z,0
2022-10-18T16:53:44.894Z,0
2022-10-18T16:58:44.515Z,0
2022-10-18T17:03:44.159Z,0
2022-10-18T17:08:43.436Z,0
2022-10-18T17:13:43.093Z,0
2022-10-18T17:18:42.955Z,0
2022-10-18T17:23:42.498Z,0
2022-10-18T17:28:40.838Z,0
2022-10-18T17:33:39.864Z,0
2022-10-18T17:38:39.553Z,0
2022-10-18T17:48:38.119Z,0
2022-10-18T17:53:37.763Z,0
2022-10-18T17:58:37.409Z,0
2022-10-18T17:59:59.542Z,0
2022-10-18T18:05:50.113Z,0
2022-10-18T18:09:58.784Z,0
2022-10-18T18:14:58.613Z,0
2022-10-18T18:19:59.185Z,0
2022-10-18T18:24:56.090Z,0
2022-10-18T18:29:56.249Z,0
2022-10-18T18:34:56.152Z,0
2022-10-18T18:39:55.883Z,0
2022-10-18T18:44:54.140Z,0
2022-10-18T18:49:53.716Z,0
2022-10-18T18:54:53.210Z,0
2022-10-18T18:59:29.449Z,0
2022-10-18T19:04:16.047Z,0
2022-10-18T19:09:16.037Z,0
2022-10-18T19:14:15.828Z,0
2022-10-18T19:19:15.800Z,0
2022-10-18T19:24:13.117Z,0
2022-10-18T19:29:13.475Z,0
2022-10-18T19:34:12.076Z,0
2022-10-18T19:39:11.894Z,0
2022-10-18T19:44:10.432Z,0
2022-10-18T19:49:09.684Z,0
2022-10-18T19:54:09.346Z,0
2022-10-18T19:58:56.807Z,0
2022-10-18T20:03:56.132Z,0
2022-10-18T20:08:55.507Z,0
2022-10-18T20:13:56.255Z,0
2022-10-18T20:18:55.339Z,0
2022-10-18T20:23:56.239Z,0
2022-10-18T20:28:53.334Z,0
2022-10-18T20:33:52.449Z,0
2022-10-18T20:38:52.021Z,0
2022-10-18T20:43:51.187Z,0
2022-10-18T20:48:50.400Z,0
2022-10-18T20:53:50.607Z,0
2022-10-18T20:58:49.357Z,0
2022-10-18T21:03:50.284Z,0
2022-10-18T21:08:47.623Z,0
2022-10-18T21:13:47.514Z,0
2022-10-18T21:18:47.388Z,0
2022-10-18T21:23:46.892Z,0
2022-10-18T21:28:45.515Z,0
2022-10-18T21:33:44.621Z,0
2022-10-18T21:38:44.331Z,0
2022-10-18T21:43:44.010Z,0
2022-10-18T21:48:42.986Z,0
2022-10-18T21:53:43.017Z,0
2022-10-18T21:58:42.572Z,0
2022-10-18T22:03:41.865Z,0
2022-10-18T22:08:42.530Z,0
2022-10-18T22:13:39.512Z,0
2022-10-18T22:18:39.446Z,0
2022-10-18T22:23:38.765Z,0
2022-10-18T22:28:38.470Z,0
2022-10-18T22:33:40.416Z,0
2022-10-18T22:38:37.450Z,0
2022-10-18T22:43:36.667Z,0
2022-10-18T22:48:37.594Z,0
2022-10-18T22:53:34.729Z,0
2022-10-18T22:58:35.041Z,0
2022-10-18T22:59:55.879Z,0
2022-10-18T23:04:55.684Z,0
2022-10-18T23:09:53.843Z,0
2022-10-18T23:14:54.014Z,0
2022-10-18T23:19:53.923Z,0
2022-10-18T23:24:53.820Z,0
2022-10-18T23:29:52.633Z,0
2022-10-18T23:34:52.008Z,0
2022-10-18T23:39:51.531Z,0
2022-10-18T23:44:51.090Z,0
2022-10-18T23:49:48.929Z,0
2022-10-18T23:54:48.613Z,0
2022-10-18T23:59:14.367Z,0
